Paia, Hawaii
Current Conditions -  °F | °C
As of 10:54 AM on Saturday 25 Oct 2014 (Local Time) from PHOG Reporting Station
Scattered Clouds Scattered Clouds  
Wind Chill: 88°   Ceiling: Unl
Heat Index: 92°   Visibility: 10mi
Dew Point: 68°   Wind: 18mph
Humidity: 51%   Direction: 50°NE
Pressure: 30.01"   Gusts: 23mph
Location:  20.89°N, 156.36°W
Report Text: PHOG 252054Z 05016G20KT 10SM SCT036 31/20 A3001 RMK AO2 SLP168 T03110200 58007 $
Loading
Personal Weather Stations






























Interactive Weather Map
Tropical Storm Tracking
New forecast layout! Learn more

10-Day Weather Forecast

Advertisements
Track Severe Weather on mobile